sensor_id;sensor_type;location;lat;lon;timestamp;pressure;altitude;pressure_sealevel;temperature;humidity
11856;BME280;5987;53.140;8.904;2022-10-24T00:01:50;100620.63;;;13.31;100.00
11856;BME280;5987;53.140;8.904;2022-10-24T00:04:54;100625.16;;;13.12;100.00
11856;BME280;5987;53.140;8.904;2022-10-24T00:07:59;100634.00;;;13.11;100.00
11856;BME280;5987;53.140;8.904;2022-10-24T00:11:08;100627.31;;;13.03;100.00
11856;BME280;5987;53.140;8.904;2022-10-24T00:14:12;100623.00;;;13.02;100.00
11856;BME280;5987;53.140;8.904;2022-10-24T00:17:16;100625.44;;;12.88;100.00
11856;BME280;5987;53.140;8.904;2022-10-24T00:20:19;100632.91;;;12.97;100.00
11856;BME280;5987;53.140;8.904;2022-10-24T00:23:25;100636.94;;;13.04;100.00
11856;BME280;5987;53.140;8.904;2022-10-24T00:26:28;100641.97;;;12.92;100.00
11856;BME280;5987;53.140;8.904;2022-10-24T00:29:32;100635.38;;;12.83;100.00
11856;BME280;5987;53.140;8.904;2022-10-24T00:32:36;100635.38;;;12.83;100.00
11856;BME280;5987;53.140;8.904;2022-10-24T00:35:41;100642.41;;;12.82;100.00
11856;BME280;5987;53.140;8.904;2022-10-24T00:38:47;100640.41;;;12.87;100.00
11856;BME280;5987;53.140;8.904;2022-10-24T00:41:50;100629.25;;;12.82;100.00
11856;BME280;5987;53.140;8.904;2022-10-24T00:44:55;100624.75;;;12.84;100.00
11856;BME280;5987;53.140;8.904;2022-10-24T00:47:59;100628.31;;;12.83;100.00
11856;BME280;5987;53.140;8.904;2022-10-24T00:51:07;100629.44;;;12.97;100.00
11856;BME280;5987;53.140;8.904;2022-10-24T00:54:15;100624.59;;;12.87;100.00
11856;BME280;5987;53.140;8.904;2022-10-24T00:57:25;100622.13;;;12.84;100.00
11856;BME280;5987;53.140;8.904;2022-10-24T01:00:32;100616.69;;;12.87;100.00
11856;BME280;5987;53.140;8.904;2022-10-24T01:03:37;100625.44;;;12.88;100.00
11856;BME280;5987;53.140;8.904;2022-10-24T01:06:54;100619.19;;;12.91;100.00
11856;BME280;5987;53.140;8.904;2022-10-24T01:10:21;100623.13;;;12.99;100.00
11856;BME280;5987;53.140;8.904;2022-10-24T01:13:39;100618.72;;;13.00;100.00
11856;BME280;5987;53.140;8.904;2022-10-24T01:16:50;100618.66;;;13.01;100.00
11856;BME280;5987;53.140;8.904;2022-10-24T01:20:36;100617.00;;;12.99;100.00
11856;BME280;5987;53.140;8.904;2022-10-24T01:27:46;100623.38;;;12.95;100.00
11856;BME280;5987;53.140;8.904;2022-10-24T01:31:06;100615.94;;;12.85;100.00
11856;BME280;5987;53.140;8.904;2022-10-24T01:34:22;100607.72;;;12.92;100.00
11856;BME280;5987;53.140;8.904;2022-10-24T01:37:36;100602.53;;;12.90;100.00
11856;BME280;5987;53.140;8.904;2022-10-24T01:40:51;100600.88;;;13.05;100.00
11856;BME280;5987;53.140;8.904;2022-10-24T01:44:03;100600.88;;;12.87;100.00
11856;BME280;5987;53.140;8.904;2022-10-24T01:47:14;100588.47;;;12.72;100.00
11856;BME280;5987;53.140;8.904;2022-10-24T01:50:22;100593.13;;;12.67;100.00
11856;BME280;5987;53.140;8.904;2022-10-24T01:53:29;100608.25;;;12.81;100.00
11856;BME280;5987;53.140;8.904;2022-10-24T01:56:33;100598.31;;;12.68;100.00
11856;BME280;5987;53.140;8.904;2022-10-24T01:59:43;100594.53;;;12.74;100.00
11856;BME280;5987;53.140;8.904;2022-10-24T02:02:53;100580.81;;;12.67;100.00
11856;BME280;5987;53.140;8.904;2022-10-24T02:06:06;100587.25;;;12.62;100.00
11856;BME280;5987;53.140;8.904;2022-10-24T02:09:16;100587.25;;;12.62;100.00
11856;BME280;5987;53.140;8.904;2022-10-24T02:12:21;100580.56;;;12.72;100.00
11856;BME280;5987;53.140;8.904;2022-10-24T02:15:31;100578.50;;;12.79;100.00
11856;BME280;5987;53.140;8.904;2022-10-24T02:18:39;100570.50;;;12.80;100.00
11856;BME280;5987;53.140;8.904;2022-10-24T02:21:50;100574.06;;;12.79;100.00
11856;BME280;5987;53.140;8.904;2022-10-24T02:25:02;100568.13;;;12.76;100.00
11856;BME280;5987;53.140;8.904;2022-10-24T02:28:14;100561.59;;;12.83;100.00
11856;BME280;5987;53.140;8.904;2022-10-24T02:31:22;100551.59;;;12.90;100.00
11856;BME280;5987;53.140;8.904;2022-10-24T02:34:33;100556.25;;;12.84;100.00
11856;BME280;5987;53.140;8.904;2022-10-24T02:37:42;100549.34;;;12.82;100.00
11856;BME280;5987;53.140;8.904;2022-10-24T02:40:51;100543.25;;;12.81;100.00
11856;BME280;5987;53.140;8.904;2022-10-24T02:43:58;100537.31;;;12.94;100.00
11856;BME280;5987;53.140;8.904;2022-10-24T02:47:05;100544.63;;;12.89;100.00
11856;BME280;5987;53.140;8.904;2022-10-24T02:50:12;100528.59;;;12.76;100.00
11856;BME280;5987;53.140;8.904;2022-10-24T02:53:22;100528.75;;;12.90;100.00
11856;BME280;5987;53.140;8.904;2022-10-24T02:56:28;100525.09;;;12.93;100.00
11856;BME280;5987;53.140;8.904;2022-10-24T02:59:32;100523.34;;;12.76;100.00
11856;BME280;5987;53.140;8.904;2022-10-24T03:02:36;100533.31;;;12.69;100.00
11856;BME280;5987;53.140;8.904;2022-10-24T03:05:41;100534.78;;;12.75;100.00
11856;BME280;5987;53.140;8.904;2022-10-24T03:08:44;100523.16;;;12.79;100.00
11856;BME280;5987;53.140;8.904;2022-10-24T03:11:48;100523.41;;;12.74;100.00
11856;BME280;5987;53.140;8.904;2022-10-24T03:14:52;100511.63;;;12.64;100.00
11856;BME280;5987;53.140;8.904;2022-10-24T03:17:56;100505.41;;;12.47;100.00
11856;BME280;5987;53.140;8.904;2022-10-24T03:21:01;100500.47;;;12.41;100.00
11856;BME280;5987;53.140;8.904;2022-10-24T03:24:05;100494.44;;;12.39;100.00
11856;BME280;5987;53.140;8.904;2022-10-24T03:27:15;100492.81;;;12.37;100.00
11856;BME280;5987;53.140;8.904;2022-10-24T03:30:19;100505.56;;;12.44;100.00
11856;BME280;5987;53.140;8.904;2022-10-24T03:33:22;100509.59;;;12.51;100.00
11856;BME280;5987;53.140;8.904;2022-10-24T03:36:28;100493.19;;;12.46;100.00
11856;BME280;5987;53.140;8.904;2022-10-24T03:39:31;100489.47;;;12.50;100.00
11856;BME280;5987;53.140;8.904;2022-10-24T03:42:35;100481.59;;;12.50;100.00
11856;BME280;5987;53.140;8.904;2022-10-24T03:45:39;100484.06;;;12.53;100.00
11856;BME280;5987;53.140;8.904;2022-10-24T03:48:43;100481.50;;;12.52;100.00
11856;BME280;5987;53.140;8.904;2022-10-24T03:51:48;100494.19;;;12.61;100.00
11856;BME280;5987;53.140;8.904;2022-10-24T03:54:51;100488.25;;;12.58;100.00
11856;BME280;5987;53.140;8.904;2022-10-24T03:57:55;100485.31;;;12.46;100.00
11856;BME280;5987;53.140;8.904;2022-10-24T04:00:59;100479.03;;;12.49;100.00
11856;BME280;5987;53.140;8.904;2022-10-24T04:04:03;100489.25;;;12.55;100.00
11856;BME280;5987;53.140;8.904;2022-10-24T04:07:08;100489.56;;;12.49;100.00
11856;BME280;5987;53.140;8.904;2022-10-24T04:10:12;100488.22;;;12.40;100.00
11856;BME280;5987;53.140;8.904;2022-10-24T04:13:15;100486.38;;;12.60;100.00
11856;BME280;5987;53.140;8.904;2022-10-24T04:16:19;100478.63;;;12.57;100.00
11856;BME280;5987;53.140;8.904;2022-10-24T04:19:25;100482.34;;;12.70;100.00
11856;BME280;5987;53.140;8.904;2022-10-24T04:22:30;100480.19;;;12.61;100.00
11856;BME280;5987;53.140;8.904;2022-10-24T04:25:35;100485.06;;;12.51;100.00
11856;BME280;5987;53.140;8.904;2022-10-24T04:28:39;100477.50;;;12.78;100.00
11856;BME280;5987;53.140;8.904;2022-10-24T04:31:43;100473.66;;;12.85;100.00
11856;BME280;5987;53.140;8.904;2022-10-24T04:34:47;100478.47;;;12.77;100.00
11856;BME280;5987;53.140;8.904;2022-10-24T04:37:52;100473.72;;;12.84;100.00
11856;BME280;5987;53.140;8.904;2022-10-24T04:40:56;100474.50;;;12.86;100.00
11856;BME280;5987;53.140;8.904;2022-10-24T04:44:00;100478.25;;;12.64;100.00
11856;BME280;5987;53.140;8.904;2022-10-24T04:47:04;100485.13;;;12.67;100.00
11856;BME280;5987;53.140;8.904;2022-10-24T04:50:08;100470.84;;;12.89;100.00
11856;BME280;5987;53.140;8.904;2022-10-24T04:53:14;100472.03;;;12.83;100.00
11856;BME280;5987;53.140;8.904;2022-10-24T04:56:18;100470.72;;;12.74;100.00
11856;BME280;5987;53.140;8.904;2022-10-24T04:59:22;100473.66;;;12.85;100.00
11856;BME280;5987;53.140;8.904;2022-10-24T05:02:26;100473.78;;;12.82;100.00
11856;BME280;5987;53.140;8.904;2022-10-24T05:05:30;100472.41;;;12.93;100.00
11856;BME280;5987;53.140;8.904;2022-10-24T05:08:35;100474.94;;;12.94;100.00
11856;BME280;5987;53.140;8.904;2022-10-24T05:11:39;100471.88;;;13.02;100.00
11856;BME280;5987;53.140;8.904;2022-10-24T05:14:43;100468.50;;;13.00;100.00
11856;BME280;5987;53.140;8.904;2022-10-24T05:17:48;100473.13;;;12.79;100.00
11856;BME280;5987;53.140;8.904;2022-10-24T05:20:55;100473.94;;;12.97;100.00
11856;BME280;5987;53.140;8.904;2022-10-24T05:24:00;100482.94;;;12.75;100.00
11856;BME280;5987;53.140;8.904;2022-10-24T05:27:04;100482.56;;;12.65;100.00
11856;BME280;5987;53.140;8.904;2022-10-24T05:30:08;100482.47;;;12.67;100.00
11856;BME280;5987;53.140;8.904;2022-10-24T05:33:13;100480.59;;;12.86;100.00
11856;BME280;5987;53.140;8.904;2022-10-24T05:36:17;100481.97;;;12.60;100.00
11856;BME280;5987;53.140;8.904;2022-10-24T05:39:22;100482.66;;;12.46;100.00
11856;BME280;5987;53.140;8.904;2022-10-24T05:42:26;100482.03;;;12.41;100.00
11856;BME280;5987;53.140;8.904;2022-10-24T05:45:29;100473.91;;;12.63;100.00
11856;BME280;5987;53.140;8.904;2022-10-24T05:48:33;100475.38;;;12.69;100.00
11856;BME280;5987;53.140;8.904;2022-10-24T05:51:37;100467.00;;;12.61;100.00
11856;BME280;5987;53.140;8.904;2022-10-24T05:54:42;100457.09;;;12.66;100.00
11856;BME280;5987;53.140;8.904;2022-10-24T05:58:04;100465.88;;;12.49;100.00
11856;BME280;5987;53.140;8.904;2022-10-24T06:01:07;100465.91;;;12.47;100.00
11856;BME280;5987;53.140;8.904;2022-10-24T06:04:11;100463.75;;;12.38;100.00
11856;BME280;5987;53.140;8.904;2022-10-24T06:07:15;100471.41;;;12.43;100.00
11856;BME280;5987;53.140;8.904;2022-10-24T06:10:20;100471.19;;;12.30;100.00
11856;BME280;5987;53.140;8.904;2022-10-24T06:13:25;100473.44;;;12.20;100.00
11856;BME280;5987;53.140;8.904;2022-10-24T06:16:34;100470.72;;;12.22;100.00
11856;BME280;5987;53.140;8.904;2022-10-24T06:19:39;100474.91;;;12.26;100.00
11856;BME280;5987;53.140;8.904;2022-10-24T06:22:43;100473.81;;;12.30;100.00
11856;BME280;5987;53.140;8.904;2022-10-24T06:25:49;100475.38;;;12.34;100.00
11856;BME280;5987;53.140;8.904;2022-10-24T06:28:54;100482.03;;;12.41;100.00
11856;BME280;5987;53.140;8.904;2022-10-24T06:31:57;100474.28;;;12.38;100.00
11856;BME280;5987;53.140;8.904;2022-10-24T06:35:02;100481.47;;;12.17;100.00
11856;BME280;5987;53.140;8.904;2022-10-24T06:38:06;100490.38;;;12.32;100.00
11856;BME280;5987;53.140;8.904;2022-10-24T06:41:13;100484.00;;;12.38;100.00
11856;BME280;5987;53.140;8.904;2022-10-24T06:44:18;100489.13;;;12.22;100.00
11856;BME280;5987;53.140;8.904;2022-10-24T06:47:22;100487.53;;;12.37;100.00
11856;BME280;5987;53.140;8.904;2022-10-24T06:50:26;100484.50;;;12.44;100.00
11856;BME280;5987;53.140;8.904;2022-10-24T06:53:30;100492.69;;;12.21;100.00
11856;BME280;5987;53.140;8.904;2022-10-24T06:56:36;100494.41;;;12.22;100.00
11856;BME280;5987;53.140;8.904;2022-10-24T06:59:39;100495.66;;;12.32;100.00
11856;BME280;5987;53.140;8.904;2022-10-24T07:02:43;100493.16;;;12.29;100.00
11856;BME280;5987;53.140;8.904;2022-10-24T07:05:47;100499.50;;;12.25;100.00
11856;BME280;5987;53.140;8.904;2022-10-24T07:08:53;100503.84;;;12.26;100.00
11856;BME280;5987;53.140;8.904;2022-10-24T07:11:59;100519.56;;;12.27;100.00
11856;BME280;5987;53.140;8.904;2022-10-24T07:15:03;100516.66;;;12.51;100.00
11856;BME280;5987;53.140;8.904;2022-10-24T07:18:12;100518.28;;;12.53;100.00
11856;BME280;5987;53.140;8.904;2022-10-24T07:21:20;100527.19;;;12.51;100.00
11856;BME280;5987;53.140;8.904;2022-10-24T07:24:26;100521.91;;;12.68;100.00
11856;BME280;5987;53.140;8.904;2022-10-24T07:27:31;100528.81;;;12.89;100.00
11856;BME280;5987;53.140;8.904;2022-10-24T07:30:36;100528.41;;;12.96;100.00
11856;BME280;5987;53.140;8.904;2022-10-24T07:33:40;100523.75;;;13.01;100.00
11856;BME280;5987;53.140;8.904;2022-10-24T07:36:44;100525.03;;;13.28;100.00
11856;BME280;5987;53.140;8.904;2022-10-24T07:39:47;100523.94;;;13.32;100.00
11856;BME280;5987;53.140;8.904;2022-10-24T07:42:52;100523.16;;;13.47;100.00
11856;BME280;5987;53.140;8.904;2022-10-24T07:45:56;100522.16;;;13.66;100.00
11856;BME280;5987;53.140;8.904;2022-10-24T07:49:00;100519.25;;;13.70;100.00
11856;BME280;5987;53.140;8.904;2022-10-24T07:52:04;100523.16;;;13.79;100.00
11856;BME280;5987;53.140;8.904;2022-10-24T07:55:08;100521.97;;;13.85;100.00
11856;BME280;5987;53.140;8.904;2022-10-24T07:58:14;100523.84;;;13.99;100.00
11856;BME280;5987;53.140;8.904;2022-10-24T08:01:21;100518.81;;;13.94;100.00
11856;BME280;5987;53.140;8.904;2022-10-24T08:04:25;100517.72;;;13.98;100.00
11856;BME280;5987;53.140;8.904;2022-10-24T08:07:30;100517.63;;;14.00;100.00
11856;BME280;5987;53.140;8.904;2022-10-24T08:10:34;100515.97;;;14.13;100.00
11856;BME280;5987;53.140;8.904;2022-10-24T08:13:39;100517.34;;;14.04;100.00
11856;BME280;5987;53.140;8.904;2022-10-24T08:16:43;100513.78;;;14.05;100.00
11856;BME280;5987;53.140;8.904;2022-10-24T08:19:48;100506.53;;;14.09;100.00
11856;BME280;5987;53.140;8.904;2022-10-24T08:22:52;100499.81;;;14.19;100.00
11856;BME280;5987;53.140;8.904;2022-10-24T08:25:55;100499.81;;;14.19;100.00
11856;BME280;5987;53.140;8.904;2022-10-24T08:29:01;100496.47;;;14.16;100.00
11856;BME280;5987;53.140;8.904;2022-10-24T08:32:07;100504.38;;;14.32;100.00
11856;BME280;5987;53.140;8.904;2022-10-24T08:35:15;100488.91;;;14.40;100.00
11856;BME280;5987;53.140;8.904;2022-10-24T08:38:20;100491.72;;;14.53;100.00
11856;BME280;5987;53.140;8.904;2022-10-24T08:41:31;100495.94;;;14.55;100.00
11856;BME280;5987;53.140;8.904;2022-10-24T08:44:39;100486.50;;;14.51;100.00
11856;BME280;5987;53.140;8.904;2022-10-24T08:47:52;100477.16;;;14.76;100.00
11856;BME280;5987;53.140;8.904;2022-10-24T08:51:08;100474.16;;;14.97;100.00
11856;BME280;5987;53.140;8.904;2022-10-24T08:54:21;100473.22;;;15.12;100.00
11856;BME280;5987;53.140;8.904;2022-10-24T08:57:30;100475.66;;;15.15;100.00
11856;BME280;5987;53.140;8.904;2022-10-24T09:00:44;100468.28;;;15.35;100.00
11856;BME280;5987;53.140;8.904;2022-10-24T09:03:51;100466.38;;;15.37;100.00
11856;BME280;5987;53.140;8.904;2022-10-24T09:06:59;100463.47;;;15.41;100.00
11856;BME280;5987;53.140;8.904;2022-10-24T09:10:12;100470.91;;;15.49;100.00
11856;BME280;5987;53.140;8.904;2022-10-24T09:13:17;100469.56;;;15.56;100.00
11856;BME280;5987;53.140;8.904;2022-10-24T09:16:23;100472.69;;;15.63;100.00
11856;BME280;5987;53.140;8.904;2022-10-24T09:19:31;100468.03;;;15.81;100.00
11856;BME280;5987;53.140;8.904;2022-10-24T09:22:35;100476.59;;;15.85;100.00
11856;BME280;5987;53.140;8.904;2022-10-24T09:25:47;100467.84;;;15.84;100.00
11856;BME280;5987;53.140;8.904;2022-10-24T09:28:51;100461.22;;;16.04;100.00
11856;BME280;5987;53.140;8.904;2022-10-24T09:31:58;100471.59;;;16.07;100.00
11856;BME280;5987;53.140;8.904;2022-10-24T09:35:07;100471.69;;;16.20;100.00
11856;BME280;5987;53.140;8.904;2022-10-24T09:38:31;100471.00;;;16.17;100.00
11856;BME280;5987;53.140;8.904;2022-10-24T09:41:35;100471.25;;;16.26;100.00
11856;BME280;5987;53.140;8.904;2022-10-24T09:44:40;100476.19;;;16.58;100.00
11856;BME280;5987;53.140;8.904;2022-10-24T09:47:54;100474.50;;;16.57;100.00
11856;BME280;5987;53.140;8.904;2022-10-24T09:51:00;100475.09;;;16.48;100.00
11856;BME280;5987;53.140;8.904;2022-10-24T09:54:25;100475.03;;;16.62;100.00
11856;BME280;5987;53.140;8.904;2022-10-24T09:57:38;100465.38;;;16.87;100.00
11856;BME280;5987;53.140;8.904;2022-10-24T10:00:42;100458.81;;;16.80;100.00
11856;BME280;5987;53.140;8.904;2022-10-24T10:04:01;100469.66;;;16.90;100.00
11856;BME280;5987;53.140;8.904;2022-10-24T10:07:14;100470.91;;;16.84;100.00
11856;BME280;5987;53.140;8.904;2022-10-24T10:10:28;100461.19;;;16.97;100.00
11856;BME280;5987;53.140;8.904;2022-10-24T10:13:35;100464.78;;;16.96;100.00
11856;BME280;5987;53.140;8.904;2022-10-24T10:16:58;100485.47;;;16.91;100.00
11856;BME280;5987;53.140;8.904;2022-10-24T10:20:05;100475.59;;;17.19;100.00
11856;BME280;5987;53.140;8.904;2022-10-24T10:23:25;100494.16;;;17.06;100.00
11856;BME280;5987;53.140;8.904;2022-10-24T10:26:43;100486.81;;;17.10;100.00
11856;BME280;5987;53.140;8.904;2022-10-24T10:29:46;100480.47;;;17.00;100.00
11856;BME280;5987;53.140;8.904;2022-10-24T10:33:10;100485.69;;;16.88;100.00
11856;BME280;5987;53.140;8.904;2022-10-24T10:36:25;100495.09;;;16.79;100.00
11856;BME280;5987;53.140;8.904;2022-10-24T10:39:57;100487.44;;;16.75;100.00
11856;BME280;5987;53.140;8.904;2022-10-24T10:43:31;100489.78;;;16.67;100.00
11856;BME280;5987;53.140;8.904;2022-10-24T10:46:46;100492.00;;;16.73;100.00
11856;BME280;5987;53.140;8.904;2022-10-24T10:49:57;100492.66;;;16.76;100.00
11856;BME280;5987;53.140;8.904;2022-10-24T10:53:20;100481.06;;;16.77;100.00
11856;BME280;5987;53.140;8.904;2022-10-24T10:56:34;100489.78;;;16.67;100.00
11856;BME280;5987;53.140;8.904;2022-10-24T10:59:53;100476.59;;;16.65;100.00
11856;BME280;5987;53.140;8.904;2022-10-24T11:03:14;100494.44;;;16.76;100.00
11856;BME280;5987;53.140;8.904;2022-10-24T11:06:33;100488.00;;;16.93;100.00
11856;BME280;5987;53.140;8.904;2022-10-24T11:09:45;100481.81;;;17.31;100.00
11856;BME280;5987;53.140;8.904;2022-10-24T11:12:54;100488.97;;;17.18;100.00
11856;BME280;5987;53.140;8.904;2022-10-24T11:16:04;100501.81;;;16.98;100.00
11856;BME280;5987;53.140;8.904;2022-10-24T11:19:21;100501.00;;;16.83;100.00
11856;BME280;5987;53.140;8.904;2022-10-24T11:22:34;100504.00;;;16.78;100.00
11856;BME280;5987;53.140;8.904;2022-10-24T11:25:46;100493.72;;;16.74;100.00
11856;BME280;5987;53.140;8.904;2022-10-24T11:28:57;100503.31;;;16.62;100.00
11856;BME280;5987;53.140;8.904;2022-10-24T11:32:15;100503.56;;;16.72;100.00
11856;BME280;5987;53.140;8.904;2022-10-24T11:35:27;100505.63;;;16.41;100.00
11856;BME280;5987;53.140;8.904;2022-10-24T11:38:34;100508.88;;;16.19;100.00
11856;BME280;5987;53.140;8.904;2022-10-24T11:41:52;100522.84;;;15.93;100.00
11856;BME280;5987;53.140;8.904;2022-10-24T11:45:05;100526.78;;;16.01;100.00
11856;BME280;5987;53.140;8.904;2022-10-24T11:48:18;100534.47;;;16.18;100.00
11856;BME280;5987;53.140;8.904;2022-10-24T11:51:29;100530.22;;;16.43;100.00
11856;BME280;5987;53.140;8.904;2022-10-24T11:54:43;100519.00;;;16.52;100.00
11856;BME280;5987;53.140;8.904;2022-10-24T11:57:57;100525.34;;;16.50;100.00
11856;BME280;5987;53.140;8.904;2022-10-24T12:01:28;100521.53;;;16.54;100.00
11856;BME280;5987;53.140;8.904;2022-10-24T12:04:56;100524.84;;;16.57;100.00
11856;BME280;5987;53.140;8.904;2022-10-24T12:08:45;100530.69;;;16.62;100.00
11856;BME280;5987;53.140;8.904;2022-10-24T12:12:09;100527.31;;;16.73;100.00
11856;BME280;5987;53.140;8.904;2022-10-24T12:15:42;100520.94;;;16.76;100.00
11856;BME280;5987;53.140;8.904;2022-10-24T12:18:55;100522.84;;;16.61;100.00
11856;BME280;5987;53.140;8.904;2022-10-24T12:22:03;100530.84;;;16.46;100.00
11856;BME280;5987;53.140;8.904;2022-10-24T12:25:20;100527.63;;;16.28;100.00
11856;BME280;5987;53.140;8.904;2022-10-24T12:28:25;100528.28;;;16.32;100.00
11856;BME280;5987;53.140;8.904;2022-10-24T12:31:32;100534.25;;;16.36;100.00
11856;BME280;5987;53.140;8.904;2022-10-24T12:34:42;100529.47;;;16.41;100.00
11856;BME280;5987;53.140;8.904;2022-10-24T12:37:51;100512.66;;;16.55;100.00
11856;BME280;5987;53.140;8.904;2022-10-24T12:40:58;100531.91;;;16.44;100.00
11856;BME280;5987;53.140;8.904;2022-10-24T12:44:37;100537.22;;;16.44;100.00
11856;BME280;5987;53.140;8.904;2022-10-24T12:48:31;100531.59;;;16.36;100.00
11856;BME280;5987;53.140;8.904;2022-10-24T12:51:36;100538.03;;;16.32;100.00
11856;BME280;5987;53.140;8.904;2022-10-24T12:54:42;100542.91;;;16.38;100.00
11856;BME280;5987;53.140;8.904;2022-10-24T12:57:46;100542.09;;;16.37;100.00
11856;BME280;5987;53.140;8.904;2022-10-24T13:00:55;100532.13;;;16.41;100.00
11856;BME280;5987;53.140;8.904;2022-10-24T13:04:46;100544.09;;;16.46;100.00
11856;BME280;5987;53.140;8.904;2022-10-24T13:08:17;100539.78;;;16.45;100.00
11856;BME280;5987;53.140;8.904;2022-10-24T13:11:40;100543.13;;;16.35;100.00
11856;BME280;5987;53.140;8.904;2022-10-24T13:15:14;100545.69;;;16.36;100.00
11856;BME280;5987;53.140;8.904;2022-10-24T13:18:42;100537.06;;;16.33;100.00
11856;BME280;5987;53.140;8.904;2022-10-24T13:21:52;100554.88;;;16.31;100.00
11856;BME280;5987;53.140;8.904;2022-10-24T13:24:58;100558.22;;;16.47;100.00
11856;BME280;5987;53.140;8.904;2022-10-24T13:28:35;100553.34;;;16.54;100.00
11856;BME280;5987;53.140;8.904;2022-10-24T13:31:49;100554.94;;;16.56;100.00
11856;BME280;5987;53.140;8.904;2022-10-24T13:34:54;100564.41;;;16.73;100.00
11856;BME280;5987;53.140;8.904;2022-10-24T13:38:01;100562.09;;;16.69;100.00
11856;BME280;5987;53.140;8.904;2022-10-24T13:41:12;100553.16;;;16.57;100.00
11856;BME280;5987;53.140;8.904;2022-10-24T13:44:37;100555.56;;;16.47;100.00
11856;BME280;5987;53.140;8.904;2022-10-24T13:47:50;100568.94;;;16.45;100.00
11856;BME280;5987;53.140;8.904;2022-10-24T13:51:06;100577.06;;;16.42;100.00
11856;BME280;5987;53.140;8.904;2022-10-24T13:54:19;100571.88;;;16.41;100.00
11856;BME280;5987;53.140;8.904;2022-10-24T13:57:31;100568.69;;;16.36;100.00
11856;BME280;5987;53.140;8.904;2022-10-24T14:00:41;100569.69;;;16.20;100.00
11856;BME280;5987;53.140;8.904;2022-10-24T14:03:47;100565.53;;;16.16;100.00
11856;BME280;5987;53.140;8.904;2022-10-24T14:06:52;100574.06;;;16.34;100.00
11856;BME280;5987;53.140;8.904;2022-10-24T14:10:12;100572.50;;;16.32;100.00
11856;BME280;5987;53.140;8.904;2022-10-24T14:13:20;100577.44;;;16.23;100.00
11856;BME280;5987;53.140;8.904;2022-10-24T14:16:27;100576.38;;;16.26;100.00
11856;BME280;5987;53.140;8.904;2022-10-24T14:19:31;100571.94;;;16.26;100.00
11856;BME280;5987;53.140;8.904;2022-10-24T14:22:40;100570.63;;;16.19;100.00
11856;BME280;5987;53.140;8.904;2022-10-24T14:25:55;100577.53;;;16.22;100.00
11856;BME280;5987;53.140;8.904;2022-10-24T14:28:59;100570.63;;;16.19;100.00
11856;BME280;5987;53.140;8.904;2022-10-24T14:32:05;100561.31;;;16.26;100.00
11856;BME280;5987;53.140;8.904;2022-10-24T14:35:12;100573.75;;;16.26;100.00
11856;BME280;5987;53.140;8.904;2022-10-24T14:38:17;100575.94;;;16.19;100.00
11856;BME280;5987;53.140;8.904;2022-10-24T14:41:27;100580.28;;;16.06;100.00
11856;BME280;5987;53.140;8.904;2022-10-24T14:44:32;100591.50;;;15.97;100.00
11856;BME280;5987;53.140;8.904;2022-10-24T14:47:50;100600.50;;;15.80;100.00
11856;BME280;5987;53.140;8.904;2022-10-24T14:51:02;100603.69;;;15.70;100.00
11856;BME280;5987;53.140;8.904;2022-10-24T14:54:17;100601.13;;;15.69;100.00
11856;BME280;5987;53.140;8.904;2022-10-24T14:57:23;100611.34;;;15.60;100.00
11856;BME280;5987;53.140;8.904;2022-10-24T15:00:35;100610.00;;;15.53;100.00
11856;BME280;5987;53.140;8.904;2022-10-24T15:03:51;100616.44;;;15.64;100.00
11856;BME280;5987;53.140;8.904;2022-10-24T15:06:56;100608.31;;;15.52;100.00
11856;BME280;5987;53.140;8.904;2022-10-24T15:10:19;100605.56;;;15.54;100.00
11856;BME280;5987;53.140;8.904;2022-10-24T15:13:32;100618.41;;;15.46;100.00
11856;BME280;5987;53.140;8.904;2022-10-24T15:16:38;100617.38;;;15.34;100.00
11856;BME280;5987;53.140;8.904;2022-10-24T15:19:45;100633.78;;;15.24;100.00
11856;BME280;5987;53.140;8.904;2022-10-24T15:22:54;100635.78;;;15.21;100.00
11856;BME280;5987;53.140;8.904;2022-10-24T15:26:02;100630.19;;;15.11;100.00
11856;BME280;5987;53.140;8.904;2022-10-24T15:29:20;100643.00;;;15.03;100.00
11856;BME280;5987;53.140;8.904;2022-10-24T15:32:24;100648.25;;;14.88;100.00
11856;BME280;5987;53.140;8.904;2022-10-24T15:35:29;100654.13;;;14.78;100.00
11856;BME280;5987;53.140;8.904;2022-10-24T15:38:36;100650.41;;;14.66;100.00
11856;BME280;5987;53.140;8.904;2022-10-24T15:41:42;100656.72;;;14.47;100.00
11856;BME280;5987;53.140;8.904;2022-10-24T15:44:47;100671.34;;;14.37;100.00
11856;BME280;5987;53.140;8.904;2022-10-24T15:47:51;100675.44;;;14.27;100.00
11856;BME280;5987;53.140;8.904;2022-10-24T15:50:55;100676.28;;;14.27;100.00
11856;BME280;5987;53.140;8.904;2022-10-24T15:54:00;100679.38;;;14.19;100.00
11856;BME280;5987;53.140;8.904;2022-10-24T15:57:04;100681.84;;;14.22;100.00
11856;BME280;5987;53.140;8.904;2022-10-24T16:00:11;100694.44;;;14.17;100.00
11856;BME280;5987;53.140;8.904;2022-10-24T16:03:19;100688.22;;;14.18;100.00
11856;BME280;5987;53.140;8.904;2022-10-24T16:06:23;100702.84;;;14.08;100.00
11856;BME280;5987;53.140;8.904;2022-10-24T16:09:29;100700.81;;;14.13;100.00
11856;BME280;5987;53.140;8.904;2022-10-24T16:12:32;100701.59;;;14.15;100.00
11856;BME280;5987;53.140;8.904;2022-10-24T16:15:39;100707.53;;;14.03;100.00
11856;BME280;5987;53.140;8.904;2022-10-24T16:18:43;100711.44;;;13.96;100.00
11856;BME280;5987;53.140;8.904;2022-10-24T16:21:47;100713.91;;;13.99;100.00
11856;BME280;5987;53.140;8.904;2022-10-24T16:24:50;100705.06;;;14.00;100.00
11856;BME280;5987;53.140;8.904;2022-10-24T16:27:55;100706.06;;;13.97;100.00
11856;BME280;5987;53.140;8.904;2022-10-24T16:31:02;100710.72;;;13.92;100.00
11856;BME280;5987;53.140;8.904;2022-10-24T16:34:06;100708.78;;;13.96;100.00